Time;durP1;ratioP1;P1;durP2;ratioP2;P2;SDS_P1;SDS_P2;PMS_P1;PMS_P2;Temp;Humidity;BMP_temperature;BMP_pressure;BME280_temperature;BME280_humidity;BME280_pressure;Samples;Min_cycle;Max_cycle;Signal;HPM_P1;HPM_P2
2022/09/27 00:01:14;;;;;;;1999.90;999.90;;;10.50;99.90;;;;;;5014918;28;20205;-68
2022/09/27 00:03:40;;;;;;;1999.90;999.90;;;10.50;99.90;;;;;;5014879;28;20601;-68
2022/09/27 00:06:18;;;;;;;1999.90;999.90;;;10.50;99.90;;;;;;5014718;28;20514;-68
2022/09/27 00:08:44;;;;;;;1999.90;999.90;;;10.50;99.90;;;;;;5014580;28;20463;-68
2022/09/27 00:11:22;;;;;;;1999.90;999.90;;;10.50;99.90;;;;;;5014700;28;20426;-68
2022/09/27 00:13:48;;;;;;;1999.90;999.90;;;10.50;99.90;;;;;;5014757;28;20268;-68
2022/09/27 00:16:14;;;;;;;1999.90;999.90;;;10.40;99.90;;;;;;5014497;28;20485;-69
2022/09/27 00:18:39;;;;;;;1999.90;999.90;;;10.40;99.90;;;;;;5014427;28;20173;-69
2022/09/27 00:21:08;;;;;;;1999.90;999.90;;;10.30;99.90;;;;;;5014518;28;20199;-69
2022/09/27 00:23:35;;;;;;;1999.90;999.90;;;10.30;99.90;;;;;;5014505;28;20202;-68
2022/09/27 00:26:00;;;;;;;1999.90;999.90;;;10.30;99.90;;;;;;5014378;28;20420;-69
2022/09/27 00:28:26;;;;;;;1999.90;999.90;;;10.20;99.90;;;;;;5014154;28;20453;-69
2022/09/27 00:30:53;;;;;;;1999.90;999.90;;;10.20;99.90;;;;;;5014129;28;20172;-70
2022/09/27 00:33:19;;;;;;;1999.90;999.90;;;10.20;99.90;;;;;;5014629;28;20493;-69
2022/09/27 00:35:45;;;;;;;1999.90;999.90;;;10.20;99.90;;;;;;5014330;28;20403;-69
2022/09/27 00:38:11;;;;;;;1999.90;999.90;;;10.20;99.90;;;;;;5014391;28;20414;-68
2022/09/27 00:40:38;;;;;;;1999.90;999.90;;;10.20;99.90;;;;;;5015272;28;20422;-68
2022/09/27 00:43:20;;;;;;;1999.90;999.90;;;10.20;99.90;;;;;;5014921;28;20424;-68
2022/09/27 00:45:54;;;;;;;1999.90;999.90;;;10.20;99.90;;;;;;5015105;28;20417;-68
2022/09/27 00:48:23;;;;;;;1999.90;999.90;;;10.20;99.90;;;;;;5015091;28;20460;-68
2022/09/27 00:50:54;;;;;;;1999.90;999.90;;;10.20;99.90;;;;;;5014136;28;20414;-68
2022/09/27 00:53:24;;;;;;;1999.90;999.90;;;10.20;99.90;;;;;;5014438;28;20915;-69
2022/09/27 00:55:56;;;;;;;1999.90;999.90;;;10.10;99.90;;;;;;5013779;28;20405;-68
2022/09/27 00:58:29;;;;;;;1999.90;999.90;;;10.20;99.90;;;;;;5013678;28;20482;-68
2022/09/27 01:01:00;;;;;;;1999.90;999.90;;;10.20;99.90;;;;;;5013826;28;20453;-68
2022/09/27 01:03:33;;;;;;;1999.90;999.90;;;10.20;99.90;;;;;;5013839;28;20417;-67
2022/09/27 01:05:59;;;;;;;1999.90;999.90;;;10.20;99.90;;;;;;5013425;28;20904;-68
2022/09/27 01:08:25;;;;;;;1999.90;999.90;;;10.20;99.90;;;;;;5013418;28;20450;-68
2022/09/27 01:11:25;;;;;;;1999.90;999.90;;;10.20;99.90;;;;;;5013644;28;20487;-68
2022/09/27 01:13:50;;;;;;;1999.90;999.90;;;10.20;99.90;;;;;;5014066;28;20258;-68
2022/09/27 01:16:41;;;;;;;1999.90;999.90;;;10.10;99.90;;;;;;5014386;28;20507;-68
2022/09/27 01:19:34;;;;;;;1999.90;999.90;;;10.20;99.90;;;;;;4978022;28;20186;-67
2022/09/27 01:22:17;;;;;;;1999.90;999.90;;;10.20;99.90;;;;;;5013367;28;20421;-67
2022/09/27 01:25:01;;;;;;;1999.90;999.90;;;10.20;99.90;;;;;;5013469;28;20446;-68
2022/09/27 01:27:49;;;;;;;1999.90;999.90;;;10.20;99.90;;;;;;5012988;28;20398;-69
2022/09/27 01:30:43;;;;;;;1999.90;999.90;;;10.20;99.90;;;;;;5013328;28;20415;-69
2022/09/27 01:33:31;;;;;;;1999.90;999.90;;;10.20;99.90;;;;;;5012778;28;20432;-69
2022/09/27 01:36:19;;;;;;;1999.90;999.90;;;10.20;99.90;;;;;;5013103;28;20401;-69
2022/09/27 01:39:16;;;;;;;1999.90;999.90;;;10.20;99.90;;;;;;5013096;28;20559;-68
2022/09/27 01:41:50;;;;;;;1999.90;999.90;;;10.20;99.90;;;;;;5012890;28;20419;-70
2022/09/27 01:44:44;;;;;;;1999.90;999.90;;;10.20;99.90;;;;;;5012997;28;20403;-69
2022/09/27 01:47:16;;;;;;;1999.90;999.90;;;10.20;99.90;;;;;;5010429;28;20410;-69
2022/09/27 01:50:08;;;;;;;1999.90;999.90;;;10.20;99.90;;;;;;5012950;28;20511;-69
2022/09/27 01:52:47;;;;;;;1999.90;999.90;;;10.30;99.90;;;;;;5012639;28;21015;-68
2022/09/27 01:55:16;;;;;;;1999.90;999.90;;;10.30;99.90;;;;;;5013127;28;20438;-67
2022/09/27 01:57:56;;;;;;;1999.90;999.90;;;10.20;99.90;;;;;;5012603;28;20406;-68
2022/09/27 02:00:22;;;;;;;1999.90;999.90;;;10.20;99.90;;;;;;5012763;28;20557;-68
2022/09/27 02:02:59;;;;;;;1999.90;999.90;;;10.20;99.90;;;;;;5012682;28;20508;-68
2022/09/27 02:05:32;;;;;;;1999.90;999.90;;;10.30;99.90;;;;;;5012914;28;20534;-67
2022/09/27 02:08:03;;;;;;;1999.90;999.90;;;10.30;99.90;;;;;;5012361;28;20553;-68
2022/09/27 02:10:38;;;;;;;1999.90;999.90;;;10.20;99.90;;;;;;5012647;28;20403;-69
2022/09/27 02:13:20;;;;;;;1999.90;999.90;;;10.30;99.90;;;;;;5012550;28;20409;-67
2022/09/27 02:16:09;;;;;;;1999.90;999.90;;;10.30;99.90;;;;;;5012539;28;20408;-67
2022/09/27 02:18:54;;;;;;;1999.90;999.90;;;10.30;99.90;;;;;;5012474;28;20915;-68
2022/09/27 02:21:21;;;;;;;1999.90;999.90;;;10.30;99.90;;;;;;5012519;28;20534;-67
2022/09/27 02:23:55;;;;;;;1999.90;999.90;;;10.30;99.90;;;;;;5012460;28;20476;-67
2022/09/27 02:26:31;;;;;;;1999.90;999.90;;;10.20;99.90;;;;;;5012270;28;20938;-68
2022/09/27 02:29:13;;;;;;;1999.90;999.90;;;10.10;99.90;;;;;;5012166;28;20545;-68
2022/09/27 02:31:39;;;;;;;1999.90;999.90;;;10.10;99.90;;;;;;5012123;28;20454;-68
2022/09/27 02:34:20;;;;;;;1999.90;999.90;;;10.10;99.90;;;;;;5012515;28;20411;-68
2022/09/27 02:36:47;;;;;;;1999.90;999.90;;;10.10;99.90;;;;;;5012137;28;20167;-68
2022/09/27 02:39:13;;;;;;;1999.90;999.90;;;10.10;99.90;;;;;;5012175;28;20497;-68
2022/09/27 02:41:39;;;;;;;1999.90;999.90;;;10.10;99.90;;;;;;5012173;28;20487;-68
2022/09/27 02:44:10;;;;;;;1999.90;999.90;;;10.00;99.90;;;;;;5012080;28;20770;-68
2022/09/27 02:46:39;;;;;;;1999.90;999.90;;;10.00;99.90;;;;;;5012258;28;20184;-68
2022/09/27 02:49:23;;;;;;;1999.90;999.90;;;9.90;99.90;;;;;;5012065;28;20456;-68
2022/09/27 02:52:12;;;;;;;1999.90;999.90;;;9.90;99.90;;;;;;5012121;28;20421;-68
2022/09/27 02:54:47;;;;;;;1999.90;999.90;;;9.90;99.90;;;;;;5012136;28;20405;-70
2022/09/27 02:57:44;;;;;;;1999.90;999.90;;;9.80;99.90;;;;;;5011803;28;20403;-69
2022/09/27 03:00:19;;;;;;;1999.90;999.90;;;9.80;99.90;;;;;;5012076;28;20407;-67
2022/09/27 03:03:00;;;;;;;1999.90;999.90;;;9.80;99.90;;;;;;5012097;28;20996;-69
2022/09/27 03:05:30;;;;;;;1999.90;999.90;;;9.80;99.90;;;;;;5012011;28;20765;-69
2022/09/27 03:07:56;;;;;;;1999.90;999.90;;;9.80;99.90;;;;;;5012000;28;20457;-69
2022/09/27 03:10:25;;;;;;;1999.90;999.90;;;9.80;99.90;;;;;;5011869;28;20399;-67
2022/09/27 03:12:52;;;;;;;1999.90;999.90;;;9.80;99.90;;;;;;5011967;28;20461;-69
2022/09/27 03:15:17;;;;;;;1999.90;999.90;;;9.80;99.90;;;;;;5011847;28;20407;-68
2022/09/27 03:17:43;;;;;;;1999.90;999.90;;;9.80;99.90;;;;;;5011598;28;20413;-68
2022/09/27 03:20:09;;;;;;;1999.90;999.90;;;9.90;99.90;;;;;;5011906;28;20637;-67
2022/09/27 03:22:36;;;;;;;1999.90;999.90;;;9.90;99.90;;;;;;5011934;28;20192;-69
2022/09/27 03:25:03;;;;;;;1999.90;999.90;;;9.80;99.90;;;;;;5011936;28;20263;-67
2022/09/27 03:27:28;;;;;;;1999.90;999.90;;;9.90;99.90;;;;;;5012017;28;20846;-67
2022/09/27 03:29:54;;;;;;;1999.90;999.90;;;9.90;99.90;;;;;;5015646;28;20546;-68
2022/09/27 03:32:19;;;;;;;1999.90;999.90;;;9.90;99.90;;;;;;5015903;28;20277;-68
2022/09/27 03:34:45;;;;;;;1999.90;999.90;;;9.80;99.90;;;;;;5016293;28;20198;-68
2022/09/27 03:37:11;;;;;;;1999.90;999.90;;;9.80;99.90;;;;;;5016399;28;20701;-68
2022/09/27 03:39:36;;;;;;;1999.90;999.90;;;9.70;99.90;;;;;;5016415;28;20171;-68
2022/09/27 03:42:02;;;;;;;1999.90;999.90;;;9.70;99.90;;;;;;5016015;28;20199;-68
2022/09/27 03:44:27;;;;;;;1999.90;999.90;;;9.70;99.90;;;;;;5016118;28;20176;-68
2022/09/27 03:46:53;;;;;;;1999.90;999.90;;;9.70;99.90;;;;;;5016277;28;20211;-68
2022/09/27 03:49:19;;;;;;;1999.90;999.90;;;9.60;99.90;;;;;;5015912;28;20291;-68
2022/09/27 03:51:44;;;;;;;1999.90;999.90;;;9.60;99.90;;;;;;5016319;28;20185;-68
2022/09/27 03:54:10;;;;;;;1999.90;999.90;;;9.60;99.90;;;;;;5015518;28;20172;-68
2022/09/27 03:56:36;;;;;;;1999.90;999.90;;;9.60;99.90;;;;;;5015749;28;20166;-68
2022/09/27 03:59:01;;;;;;;1999.90;999.90;;;9.60;99.90;;;;;;5015837;28;20185;-68
2022/09/27 04:01:27;;;;;;;1999.90;999.90;;;9.60;99.90;;;;;;5016036;28;20198;-68
2022/09/27 04:03:53;;;;;;;1999.90;999.90;;;9.60;99.90;;;;;;5015948;28;20653;-68
2022/09/27 04:06:19;;;;;;;1999.90;999.90;;;9.60;99.90;;;;;;5015713;28;20417;-68
2022/09/27 04:08:46;;;;;;;1999.90;999.90;;;9.60;99.90;;;;;;5015523;28;20200;-68
2022/09/27 04:11:12;;;;;;;1999.90;999.90;;;9.60;99.90;;;;;;5015373;28;20286;-68
2022/09/27 04:13:38;;;;;;;1999.90;999.90;;;9.60;99.90;;;;;;5015716;28;20445;-68
2022/09/27 04:16:04;;;;;;;1999.90;999.90;;;9.60;99.90;;;;;;5014790;28;20498;-68
2022/09/27 04:18:29;;;;;;;1999.90;999.90;;;9.50;99.90;;;;;;5014522;28;20217;-68
2022/09/27 04:20:55;;;;;;;1999.90;999.90;;;9.50;99.90;;;;;;5014569;28;20179;-67
2022/09/27 04:23:22;;;;;;;1999.90;999.90;;;9.50;99.90;;;;;;5014508;28;20174;-68
2022/09/27 04:25:48;;;;;;;1999.90;999.90;;;9.40;99.90;;;;;;5015308;28;20182;-68
2022/09/27 04:28:14;;;;;;;1999.90;999.90;;;9.30;99.90;;;;;;5015371;28;20456;-68
2022/09/27 04:30:40;;;;;;;1999.90;999.90;;;9.40;99.90;;;;;;5014797;28;20462;-69
2022/09/27 04:33:06;;;;;;;1999.90;999.90;;;9.40;99.90;;;;;;4999108;28;20454;-68
2022/09/27 04:38:19;;;;;;;1999.90;999.90;;;9.30;99.90;;;;;;4994736;28;20489;-67
2022/09/27 04:40:44;;;;;;;1999.90;999.90;;;9.40;99.90;;;;;;4993964;28;20417;-68
2022/09/27 04:43:10;;;;;;;1999.90;999.90;;;9.40;99.90;;;;;;4994623;28;20851;-68
2022/09/27 04:45:35;;;;;;;1999.90;999.90;;;9.30;99.90;;;;;;4994545;28;20184;-68
2022/09/27 04:48:01;;;;;;;1999.90;999.90;;;9.30;99.90;;;;;;4994242;28;20226;-67
2022/09/27 04:50:27;;;;;;;1999.90;999.90;;;9.30;99.90;;;;;;4994597;28;20644;-68
2022/09/27 04:52:53;;;;;;;1999.90;999.90;;;9.30;99.90;;;;;;4994830;28;20215;-68
2022/09/27 04:55:21;;;;;;;1999.90;999.90;;;9.30;99.90;;;;;;4994972;28;20235;-68
2022/09/27 04:57:48;;;;;;;1999.90;999.90;;;9.30;99.90;;;;;;4994112;28;20505;-69
2022/09/27 05:00:14;;;;;;;1999.90;999.90;;;9.30;99.90;;;;;;4994391;28;20441;-69
2022/09/27 05:02:42;;;;;;;1999.90;999.90;;;9.30;99.90;;;;;;4994244;28;21129;-69
2022/09/27 05:05:09;;;;;;;1999.90;999.90;;;9.30;99.90;;;;;;4994320;28;20441;-69
2022/09/27 05:07:36;;;;;;;1999.90;999.90;;;9.40;99.90;;;;;;4993839;28;20777;-69
2022/09/27 05:10:02;;;;;;;1999.90;999.90;;;9.30;99.90;;;;;;4994144;28;20611;-69
2022/09/27 05:12:28;;;;;;;1999.90;999.90;;;9.30;99.90;;;;;;4994309;28;20415;-68
2022/09/27 05:14:53;;;;;;;1999.90;999.90;;;9.40;99.90;;;;;;4994435;28;20412;-68
2022/09/27 05:17:21;;;;;;;1999.90;999.90;;;9.40;99.90;;;;;;4994146;28;20171;-68
2022/09/27 05:19:47;;;;;;;1999.90;999.90;;;9.40;99.90;;;;;;4994057;28;20550;-68
2022/09/27 05:22:12;;;;;;;1999.90;999.90;;;9.40;99.90;;;;;;4993775;28;20929;-68
2022/09/27 05:24:38;;;;;;;1999.90;999.90;;;9.40;99.90;;;;;;4993753;28;20498;-68
2022/09/27 05:27:07;;;;;;;1999.90;999.90;;;9.40;99.90;;;;;;4993542;28;20251;-68
2022/09/27 05:29:34;;;;;;;1999.90;999.90;;;9.40;99.90;;;;;;4993626;28;20287;-67
2022/09/27 05:32:00;;;;;;;1999.90;999.90;;;9.40;99.90;;;;;;4993883;28;20892;-68
2022/09/27 05:34:26;;;;;;;1999.90;999.90;;;9.40;99.90;;;;;;4993734;28;20785;-69
2022/09/27 05:36:52;;;;;;;1999.90;999.90;;;9.40;99.90;;;;;;4993339;28;20411;-70
2022/09/27 05:39:18;;;;;;;1999.90;999.90;;;9.40;99.90;;;;;;4993464;28;20176;-69
2022/09/27 05:41:45;;;;;;;1999.90;999.90;;;9.40;99.90;;;;;;4993369;28;20200;-69
2022/09/27 05:44:12;;;;;;;1999.90;999.90;;;9.40;99.90;;;;;;4993483;28;20497;-69
2022/09/27 05:46:38;;;;;;;1999.90;999.90;;;9.40;99.90;;;;;;4993191;28;20966;-69
2022/09/27 05:49:04;;;;;;;1999.90;999.90;;;9.50;99.90;;;;;;4993307;28;20512;-69
2022/09/27 05:51:30;;;;;;;1999.90;999.90;;;9.50;99.90;;;;;;4992274;28;20438;-69
2022/09/27 05:53:56;;;;;;;1999.90;999.90;;;9.60;99.90;;;;;;4993296;28;20403;-69
2022/09/27 05:56:21;;;;;;;1999.90;999.90;;;9.60;99.90;;;;;;4993127;28;20441;-67
2022/09/27 05:58:47;;;;;;;1999.90;999.90;;;9.60;99.90;;;;;;4993015;28;20178;-70
2022/09/27 06:01:13;;;;;;;1999.90;999.90;;;9.60;99.90;;;;;;4993499;28;20194;-69
2022/09/27 06:03:39;;;;;;;1999.90;999.90;;;9.60;99.90;;;;;;4993150;28;20168;-69
2022/09/27 06:06:05;;;;;;;1999.90;999.90;;;9.60;99.90;;;;;;4993014;28;20169;-70
2022/09/27 06:08:35;;;;;;;1999.90;999.90;;;9.60;99.90;;;;;;4992694;28;20456;-69
2022/09/27 06:11:03;;;;;;;1999.90;999.90;;;9.60;99.90;;;;;;4992991;28;20204;-69
2022/09/27 06:13:30;;;;;;;1999.90;999.90;;;9.70;99.90;;;;;;4992996;28;20412;-69
2022/09/27 06:15:55;;;;;;;1999.90;999.90;;;9.70;99.90;;;;;;4992870;28;20836;-69
2022/09/27 06:18:21;;;;;;;1999.90;999.90;;;9.70;99.90;;;;;;4992778;28;20449;-69
2022/09/27 06:20:47;;;;;;;1999.90;999.90;;;9.60;99.90;;;;;;4992690;28;20271;-69
2022/09/27 06:23:15;;;;;;;1999.90;999.90;;;9.60;99.90;;;;;;4993128;28;20572;-69
2022/09/27 06:25:41;;;;;;;1999.90;999.90;;;9.60;99.90;;;;;;4992806;28;20178;-69
2022/09/27 06:28:08;;;;;;;1999.90;999.90;;;9.70;99.90;;;;;;4992424;28;20446;-69
2022/09/27 06:30:41;;;;;;;1999.90;999.90;;;9.80;99.90;;;;;;4992830;28;20401;-67
2022/09/27 06:33:10;;;;;;;1999.90;999.90;;;9.80;99.90;;;;;;4992751;28;20436;-67
2022/09/27 06:35:36;;;;;;;1999.90;999.90;;;9.80;99.90;;;;;;4992628;28;20485;-67
2022/09/27 06:38:04;;;;;;;1999.90;999.90;;;9.80;99.90;;;;;;4992658;28;20971;-67
2022/09/27 06:40:30;;;;;;;1999.90;999.90;;;9.80;99.90;;;;;;4992835;28;20266;-68
2022/09/27 06:43:07;;;;;;;1999.90;999.90;;;9.80;99.90;;;;;;4992555;28;20466;-68
2022/09/27 06:45:34;;;;;;;1999.90;999.90;;;9.80;99.90;;;;;;4992531;28;20502;-68
2022/09/27 06:48:01;;;;;;;1999.90;999.90;;;9.80;99.90;;;;;;4992324;28;20949;-69
2022/09/27 06:50:36;;;;;;;1999.90;999.90;;;9.90;99.90;;;;;;4992764;28;20824;-70
2022/09/27 06:53:04;;;;;;;1999.90;999.90;;;9.90;99.90;;;;;;4992509;28;20435;-67
2022/09/27 06:55:30;;;;;;;1999.90;999.90;;;9.90;99.90;;;;;;4992633;28;20820;-67
2022/09/27 07:00:42;;;;;;;1999.90;999.90;;;10.00;99.90;;;;;;4992311;28;20492;-68
2022/09/27 07:03:10;;;;;;;1999.90;999.90;;;10.10;99.90;;;;;;4994035;28;20404;-67
2022/09/27 07:05:36;;;;;;;1999.90;999.90;;;10.10;99.90;;;;;;4996591;28;20785;-68
2022/09/27 07:08:03;;;;;;;1999.90;999.90;;;10.10;99.90;;;;;;4996217;28;20490;-67
2022/09/27 07:10:32;;;;;;;1999.90;999.90;;;10.10;99.90;;;;;;4996428;28;20441;-67
2022/09/27 07:13:07;;;;;;;1999.90;999.90;;;10.10;99.90;;;;;;4996206;28;20836;-68
2022/09/27 07:15:36;;;;;;;1999.90;999.90;;;10.20;99.90;;;;;;4996280;28;20765;-68
2022/09/27 07:18:03;;;;;;;1999.90;999.90;;;10.20;99.90;;;;;;4995985;28;20785;-68
2022/09/27 07:20:28;;;;;;;1999.90;999.90;;;10.30;99.90;;;;;;4996327;28;20527;-68
2022/09/27 07:22:54;;;;;;;1999.90;999.90;;;10.30;99.90;;;;;;4996453;28;20453;-68
2022/09/27 07:25:20;;;;;;;1999.90;999.90;;;10.20;99.90;;;;;;4996591;28;20173;-68
2022/09/27 07:27:46;;;;;;;1999.90;999.90;;;10.20;99.90;;;;;;4995967;28;20171;-68
2022/09/27 07:30:12;;;;;;;1999.90;999.90;;;10.20;99.90;;;;;;4996099;28;20469;-68
2022/09/27 07:32:38;;;;;;;1999.90;999.90;;;10.20;99.90;;;;;;4995762;28;20212;-67
2022/09/27 07:35:06;;;;;;;1999.90;999.90;;;10.20;99.90;;;;;;4995897;28;20403;-68
2022/09/27 07:37:33;;;;;;;1999.90;999.90;;;10.30;99.90;;;;;;4995706;28;20412;-67
2022/09/27 07:39:59;;;;;;;1999.90;999.90;;;10.30;99.90;;;;;;4995774;28;20460;-67
2022/09/27 07:42:26;;;;;;;1999.90;999.90;;;10.40;99.90;;;;;;4995686;28;20554;-67
2022/09/27 07:44:51;;;;;;;1999.90;999.90;;;10.40;99.90;;;;;;4995883;28;20414;-69
2022/09/27 07:47:18;;;;;;;1999.90;999.90;;;10.40;99.90;;;;;;4995404;28;20416;-69
2022/09/27 07:49:44;;;;;;;1999.90;999.90;;;10.40;99.90;;;;;;4995583;28;20572;-69
2022/09/27 07:52:09;;;;;;;1999.90;999.90;;;10.40;99.90;;;;;;4995515;28;20506;-67
2022/09/27 07:54:36;;;;;;;1999.90;999.90;;;10.40;99.90;;;;;;4995460;28;20177;-67
2022/09/27 07:57:02;;;;;;;1999.90;999.90;;;10.40;99.90;;;;;;4995350;28;20167;-68
2022/09/27 07:59:28;;;;;;;1999.90;999.90;;;10.40;99.90;;;;;;4995611;28;20417;-67
2022/09/27 08:01:54;;;;;;;1999.90;999.90;;;10.40;99.90;;;;;;4995190;28;20437;-68
2022/09/27 08:04:20;;;;;;;1999.90;999.90;;;10.40;99.90;;;;;;4995320;28;20411;-68
2022/09/27 08:06:46;;;;;;;1999.90;999.90;;;10.40;99.90;;;;;;4995131;28;20415;-67
2022/09/27 08:09:12;;;;;;;1999.90;999.90;;;10.50;99.90;;;;;;4995092;28;20959;-67
2022/09/27 08:11:37;;;;;;;1999.90;999.90;;;10.40;99.90;;;;;;4995140;28;20525;-68
2022/09/27 08:14:03;;;;;;;1999.90;999.90;;;10.40;99.90;;;;;;4994315;28;20164;-67
2022/09/27 08:16:31;;;;;;;1999.90;999.90;;;10.50;99.90;;;;;;4994970;28;20164;-68
2022/09/27 08:18:57;;;;;;;1999.90;999.90;;;10.60;99.90;;;;;;4992174;28;20259;-68
2022/09/27 08:21:23;;;;;;;1999.90;999.90;;;10.70;99.90;;;;;;4994519;28;20581;-69
2022/09/27 08:23:48;;;;;;;1999.90;999.90;;;10.90;99.90;;;;;;4994169;28;20567;-68
2022/09/27 08:26:14;;;;;;;1999.90;999.90;;;11.00;99.90;;;;;;4994446;28;20207;-67
2022/09/27 08:28:39;;;;;;;1999.90;999.90;;;10.90;99.90;;;;;;4993940;28;20204;-68
2022/09/27 08:31:05;;;;;;;1999.90;999.90;;;11.00;99.90;;;;;;4993998;28;20201;-67
2022/09/27 08:33:31;;;;;;;1999.90;999.90;;;11.00;99.90;;;;;;4994914;28;20172;-67
2022/09/27 08:35:56;;;;;;;1999.90;999.90;;;11.10;99.90;;;;;;4994201;28;20165;-67
2022/09/27 08:38:22;;;;;;;1999.90;999.90;;;11.20;99.90;;;;;;4993375;28;20174;-68
2022/09/27 08:40:53;;;;;;;1999.90;999.90;;;11.20;99.90;;;;;;4994290;28;20177;-68
2022/09/27 08:43:36;;;;;;;1999.90;999.90;;;11.30;99.90;;;;;;4994375;28;20709;-68
2022/09/27 08:46:36;;;;;;;1999.90;999.90;;;11.40;99.90;;;;;;4993792;28;20409;-68
2022/09/27 08:49:11;;;;;;;1999.90;999.90;;;11.60;99.90;;;;;;4993891;28;20500;-70
2022/09/27 08:51:39;;;;;;;1999.90;999.90;;;11.60;99.90;;;;;;4994130;28;20424;-69
2022/09/27 08:54:19;;;;;;;1999.90;999.90;;;11.60;99.90;;;;;;4993797;28;20453;-68
2022/09/27 08:56:48;;;;;;;1999.90;999.90;;;11.60;99.90;;;;;;4993601;28;20393;-68
2022/09/27 08:59:20;;;;;;;1999.90;999.90;;;11.70;99.90;;;;;;4993691;28;20416;-68
2022/09/27 09:01:50;;;;;;;1999.90;999.90;;;11.70;99.90;;;;;;4993718;28;20424;-68
2022/09/27 09:04:34;;;;;;;1999.90;999.90;;;11.80;99.90;;;;;;4994133;28;20798;-67
2022/09/27 09:07:05;;;;;;;1999.90;999.90;;;11.70;99.90;;;;;;4993374;28;20413;-67
2022/09/27 09:09:33;;;;;;;1999.90;999.90;;;11.70;99.90;;;;;;4993337;28;20444;-68
2022/09/27 09:14:55;;;;;;;1999.90;999.90;;;11.50;99.90;;;;;;4993440;28;20909;-68
2022/09/27 09:17:45;;;;;;;1999.90;999.90;;;11.50;99.90;;;;;;4993148;28;20492;-68
2022/09/27 09:20:34;;;;;;;1999.90;999.90;;;11.60;99.90;;;;;;4993619;28;20494;-68
2022/09/27 09:23:09;;;;;;;1999.90;999.90;;;11.60;99.90;;;;;;4993192;28;20448;-68
2022/09/27 09:25:39;;;;;;;1999.90;999.90;;;11.70;99.90;;;;;;4993562;28;20499;-68
2022/09/27 09:28:35;;;;;;;1999.90;999.90;;;11.70;99.90;;;;;;4993013;28;20414;-68
2022/09/27 09:31:20;;;;;;;1999.90;999.90;;;11.70;99.90;;;;;;4992979;28;20448;-68
2022/09/27 09:34:18;;;;;;;1999.90;999.90;;;11.70;99.90;;;;;;4993559;28;20444;-68
2022/09/27 09:36:51;;;;;;;1999.90;999.90;;;11.60;99.90;;;;;;4992246;28;20455;-68
2022/09/27 09:39:41;;;;;;;1999.90;999.90;;;11.80;99.90;;;;;;4992902;28;20408;-68
2022/09/27 09:42:21;;;;;;;1999.90;999.90;;;12.00;99.90;;;;;;4993145;28;21008;-68
2022/09/27 09:45:11;;;;;;;1999.90;999.90;;;12.00;99.90;;;;;;4992756;28;20434;-68
2022/09/27 09:47:50;;;;;;;1999.90;999.90;;;12.10;99.90;;;;;;4992640;28;20896;-68
2022/09/27 09:50:49;;;;;;;1999.90;999.90;;;12.10;99.90;;;;;;4993040;28;20445;-68
2022/09/27 09:53:27;;;;;;;1999.90;999.90;;;12.00;99.90;;;;;;4960452;28;20421;-68
2022/09/27 09:56:05;;;;;;;1999.90;999.90;;;11.90;99.90;;;;;;4993117;28;20393;-68
2022/09/27 09:58:40;;;;;;;1999.90;999.90;;;11.80;99.90;;;;;;4992479;28;20408;-68
2022/09/27 10:01:43;;;;;;;1999.90;999.90;;;11.90;99.90;;;;;;4992440;28;20926;-68
2022/09/27 10:04:25;;;;;;;1999.90;999.90;;;11.80;99.90;;;;;;4983154;28;20431;-68
2022/09/27 10:06:51;;;;;;;1999.90;999.90;;;11.90;99.90;;;;;;4992425;28;20408;-68
2022/09/27 10:09:22;;;;;;;1999.90;999.90;;;12.00;99.90;;;;;;4992762;28;21008;-69
2022/09/27 10:11:48;;;;;;;1999.90;999.90;;;12.10;99.90;;;;;;4992705;28;20511;-68
2022/09/27 10:14:16;;;;;;;1999.90;999.90;;;12.10;99.90;;;;;;4992208;28;20502;-68
2022/09/27 10:16:48;;;;;;;1999.90;999.90;;;12.10;99.90;;;;;;4992011;28;20769;-67
2022/09/27 10:19:30;;;;;;;1999.90;999.90;;;12.10;99.90;;;;;;4992449;28;20407;-68
2022/09/27 10:22:21;;;;;;;1999.90;999.90;;;12.00;99.90;;;;;;4992101;28;20479;-68
2022/09/27 10:25:02;;;;;;;1999.90;999.90;;;11.90;99.90;;;;;;4992442;28;20427;-67
2022/09/27 10:27:37;;;;;;;1999.90;999.90;;;11.80;99.90;;;;;;4991610;28;20572;-68
2022/09/27 10:30:04;;;;;;;1999.90;999.90;;;11.80;99.90;;;;;;4991948;28;20460;-68
2022/09/27 10:32:35;;;;;;;1999.90;999.90;;;11.60;99.90;;;;;;4992256;28;20460;-67
2022/09/27 10:35:43;;;;;;;1999.90;999.90;;;11.60;99.90;;;;;;4992310;28;20412;-69
2022/09/27 10:38:15;;;;;;;1999.90;999.90;;;11.50;99.90;;;;;;4930480;29;20926;-67
2022/09/27 10:40:42;;;;;;;1999.90;999.90;;;11.50;99.90;;;;;;4932218;29;20423;-68
2022/09/27 10:43:26;;;;;;;1999.90;999.90;;;11.50;99.90;;;;;;4965170;28;20486;-68
2022/09/27 10:46:24;;;;;;;1999.90;999.90;;;11.60;99.90;;;;;;4991798;28;20423;-67
2022/09/27 10:49:21;;;;;;;1999.90;999.90;;;11.70;99.90;;;;;;4991524;28;20606;-67
2022/09/27 10:51:52;;;;;;;1999.90;999.90;;;11.70;99.90;;;;;;4991712;28;20428;-68
2022/09/27 10:54:26;;;;;;;1999.90;999.90;;;11.70;99.90;;;;;;4992506;28;20452;-68
2022/09/27 10:56:58;;;;;;;1999.90;999.90;;;11.80;99.90;;;;;;4991814;28;20905;-69
2022/09/27 10:59:26;;;;;;;1999.90;999.90;;;11.90;99.90;;;;;;4991636;28;20413;-68
2022/09/27 11:02:34;;;;;;;1999.90;999.90;;;12.10;99.90;;;;;;4992178;28;20809;-68
2022/09/27 11:05:14;;;;;;;1999.90;999.90;;;12.10;99.90;;;;;;4984092;28;20479;-68
2022/09/27 11:07:51;;;;;;;1999.90;999.90;;;12.20;99.90;;;;;;4991077;28;20412;-68
2022/09/27 11:10:27;;;;;;;1999.90;999.90;;;12.30;99.90;;;;;;4992077;28;20416;-68
2022/09/27 11:13:18;;;;;;;1999.90;999.90;;;12.40;99.90;;;;;;4992249;28;20946;-68
2022/09/27 11:16:21;;;;;;;1999.90;999.90;;;12.40;99.90;;;;;;4992050;28;20397;-68
2022/09/27 11:19:05;;;;;;;1999.90;999.90;;;12.50;99.90;;;;;;4991519;28;20409;-68
2022/09/27 11:21:50;;;;;;;1999.90;999.90;;;12.60;99.90;;;;;;4991545;28;20439;-69
2022/09/27 11:25:07;;;;;;;1999.90;999.90;;;12.80;99.90;;;;;;4992014;28;20401;-68
2022/09/27 11:27:47;;;;;;;1999.90;999.90;;;12.90;99.90;;;;;;4930948;29;20415;-67
2022/09/27 11:30:15;;;;;;;1999.90;999.90;;;12.80;99.90;;;;;;4931423;29;20470;-68
2022/09/27 11:33:09;;;;;;;1999.90;999.90;;;12.90;99.90;;;;;;5010283;23;20484;-69
2022/09/27 11:35:50;;;;;;;1999.90;999.90;;;13.00;99.90;;;;;;4965863;28;20421;-68
2022/09/27 11:38:52;;;;;;;1999.90;999.90;;;12.90;99.90;;;;;;4991514;28;20396;-69
2022/09/27 11:41:28;;;;;;;1999.90;999.90;;;12.90;99.90;;;;;;4991850;28;20780;-68
2022/09/27 11:44:06;;;;;;;1999.90;999.90;;;12.90;99.90;;;;;;4991567;28;20407;-68
2022/09/27 11:46:34;;;;;;;1999.90;999.90;;;12.70;99.90;;;;;;4991478;28;20408;-69
2022/09/27 11:49:19;;;;;;;1999.90;999.90;;;12.50;99.90;;;;;;4992701;28;20452;-68
2022/09/27 11:52:10;;;;;;;1999.90;999.90;;;12.40;99.90;;;;;;4994901;28;20420;-68
2022/09/27 11:54:53;;;;;;;1999.90;999.90;;;12.40;99.90;;;;;;4995313;28;20404;-68
2022/09/27 11:57:20;;;;;;;1999.90;999.90;;;12.30;99.90;;;;;;4994533;28;20427;-68
2022/09/27 12:00:08;;;;;;;1999.90;999.90;;;12.30;99.90;;;;;;4994794;28;20439;-68
2022/09/27 12:02:44;;;;;;;1999.90;999.90;;;12.20;99.90;;;;;;4995023;28;20421;-68
2022/09/27 12:06:08;;;;;;;1999.90;999.90;;;12.10;99.90;;;;;;4994945;28;20407;-69
2022/09/27 12:09:15;;;;;;;1999.90;999.90;;;12.20;99.90;;;;;;4989550;28;20491;-68
2022/09/27 12:12:16;;;;;;;1999.90;999.90;;;12.20;99.90;;;;;;4994352;28;20441;-69
2022/09/27 12:14:45;;;;;;;1999.90;999.90;;;12.10;99.90;;;;;;4993733;28;20503;-68
2022/09/27 12:17:19;;;;;;;1999.90;999.90;;;12.10;99.90;;;;;;4994033;28;20389;-68
2022/09/27 12:19:54;;;;;;;1999.90;999.90;;;12.10;99.90;;;;;;4994482;28;20417;-68
2022/09/27 12:22:49;;;;;;;1999.90;999.90;;;12.10;99.90;;;;;;4994695;28;20434;-68
2022/09/27 12:25:17;;;;;;;1999.90;999.90;;;12.10;99.90;;;;;;4994481;28;20405;-68
2022/09/27 12:27:48;;;;;;;1999.90;999.90;;;12.10;99.90;;;;;;4993347;28;20408;-69
2022/09/27 12:30:14;;;;;;;1999.90;999.90;;;12.00;99.90;;;;;;4994558;28;20436;-68
2022/09/27 12:33:06;;;;;;;1999.90;999.90;;;11.90;99.90;;;;;;4994363;28;20505;-69
2022/09/27 12:35:41;;;;;;;1999.90;999.90;;;11.60;99.90;;;;;;4994095;28;20172;-69
2022/09/27 12:38:14;;;;;;;1999.90;999.90;;;11.20;99.90;;;;;;4993735;28;20423;-68